Stations météo

réclame
Mon MeteoGroup
Buzenol, Belgique (6484): Température de l'air & dewpoint: 26.05.2020 08:00:00 - 01.06.2020 08:00:00 (CEST)Buzenol, Belgique (6484): Vitesse du vent & gusts: 26.05.2020 08:00:00 - 01.06.2020 08:00:00 (CEST)Buzenol, Belgique (6484): Direction du vent: 26.05.2020 08:00:00 - 01.06.2020 08:00:00 (CEST)Buzenol, Belgique (6484): reduced air pressure: 26.05.2020 08:00:00 - 01.06.2020 08:00:00 (CEST)Buzenol, Belgique (6484): Ensoleillement: 26.05.2020 08:00:00 - 01.06.2020 08:00:00 (CEST)Buzenol, Belgique (6484): Quantités de précipitations: 26.05.2020 08:00:00 - 01.06.2020 08:00:00 (CEST)
Date & Time tt [°C] td [°C] ff [km/h] ff [knt] fx [km/h] fx [knt] dd ppp [hPa] sd [min] rr [mm]
01.06.2020 08:00:00 - - - - - - - - - -
01.06.2020 07:00:00 11,2 5,9 9 5 16 9 ENE 1021,1 52 0,0
01.06.2020 06:00:00 10,0 5,1 10 6 20 11 E 1021,3 0 0,0
01.06.2020 05:00:00 10,4 5,0 11 6 19 11 E 1021,3 0 0,0
01.06.2020 04:00:00 11,0 5,1 13 7 17 9 E 1021,4 0 0,0
01.06.2020 03:00:00 11,4 5,5 10 6 19 11 E 1021,3 0 0,0
01.06.2020 02:00:00 9,6 5,6 7 4 13 7 ENE 1021,8 0 0,0
01.06.2020 01:00:00 10,3 5,5 7 4 16 8 ENE 1021,7 0 0,0
01.06.2020 00:00:00 12,0 6,3 9 5 15 8 E 1021,0 0 0,0
31.05.2020 23:00:00 11,4 6,0 7 4 11 6 E 1021,2 0 0,0
31.05.2020 22:00:00 14,2 5,6 6 3 13 7 E 1020,4 0 0,0
31.05.2020 21:00:00 17,0 6,1 6 4 20 11 SE 1019,8 53 0,0
31.05.2020 20:00:00 18,6 5,4 14 8 29 16 SE 1019,1 60 0,0
31.05.2020 19:00:00 19,2 6,3 10 5 34 18 SE 1018,9 60 0,0
31.05.2020 18:00:00 20,0 5,5 13 7 36 20 SE 1018,8 60 0,0
31.05.2020 17:00:00 19,8 5,1 17 9 39 21 SSE 1018,9 60 0,0
31.05.2020 16:00:00 19,8 5,7 16 9 31 17 ESE 1019,2 52 0,0
31.05.2020 15:00:00 19,0 5,7 15 8 32 17 ESE 1019,4 57 0,0
31.05.2020 14:00:00 18,7 6,4 18 10 29 16 SE 1019,6 49 0,0
31.05.2020 13:00:00 17,1 5,5 17 9 36 19 E 1020,3 51 0,0
31.05.2020 12:00:00 16,5 5,4 16 9 30 16 E 1020,7 44 0,0
31.05.2020 11:00:00 15,8 5,5 13 7 31 17 E 1021,2 53 0,0
31.05.2020 10:00:00 15,7 5,1 15 8 26 14 SE 1021,3 60 0,0
31.05.2020 09:00:00 14,4 5,6 11 6 19 10 SE 1021,4 60 0,0
31.05.2020 08:00:00 11,9 4,8 11 6 16 9 E 1021,6 60 0,0
31.05.2020 07:00:00 10,0 3,9 9 5 18 10 E 1022,1 51 0,0
31.05.2020 06:00:00 7,9 4,0 10 5 14 8 E 1022,2 0 0,0
31.05.2020 05:00:00 5,5 3,4 9 5 11 6 ENE 1022,4 0 0,0
31.05.2020 04:00:00 7,0 3,9 7 4 13 7 ENE 1022,1 0 0,0
31.05.2020 03:00:00 7,3 3,9 9 5 11 6 ENE 1022,2 0 0,0
31.05.2020 02:00:00 10,2 3,3 7 4 11 6 ENE 1022,2 0 0,0
31.05.2020 01:00:00 11,7 3,4 8 4 13 7 E 1022,0 0 0,0
31.05.2020 00:00:00 12,8 3,9 6 3 13 7 ESE 1021,5 0 0,0
30.05.2020 23:00:00 13,6 4,4 6 4 11 6 ESE 1021,1 0 0,0
30.05.2020 22:00:00 15,2 4,1 6 4 15 8 ESE 1020,3 0 0,0
30.05.2020 21:00:00 17,7 4,3 9 5 24 13 SE 1019,6 55 0,0
30.05.2020 20:00:00 19,3 4,5 11 6 30 16 SE 1019,4 60 0,0
30.05.2020 19:00:00 20,0 4,7 16 8 35 19 ESE 1019,5 60 0,0
30.05.2020 18:00:00 20,4 5,1 14 8 28 15 ESE 1019,6 48 0,0
30.05.2020 17:00:00 20,0 5,6 14 8 31 17 ESE 1020,1 36 0,0
30.05.2020 16:00:00 19,9 5,3 18 10 35 19 ESE 1020,1 47 0,0
30.05.2020 15:00:00 20,5 6,1 16 9 31 17 ESE 1020,5 56 0,0
30.05.2020 14:00:00 19,6 5,3 18 10 32 17 SE 1021,2 55 0,0
30.05.2020 13:00:00 19,0 6,3 14 7 32 17 SSE 1021,7 47 0,0
30.05.2020 12:00:00 18,3 6,6 16 9 35 19 S 1022,1 59 0,0
30.05.2020 11:00:00 17,2 5,9 16 8 26 14 SSE 1022,6 60 0,0
30.05.2020 10:00:00 15,8 5,4 16 9 24 13 SE 1022,9 60 0,0
30.05.2020 09:00:00 14,2 5,2 14 8 25 14 ESE 1023,1 60 0,0
30.05.2020 08:00:00 12,4 4,4 11 6 20 11 E 1023,1 60 0,0
30.05.2020 07:00:00 10,5 3,5 12 7 20 11 E 1023,5 50 0,0
30.05.2020 06:00:00 9,4 3,0 12 7 21 12 E 1023,7 0 0,0
30.05.2020 05:00:00 9,7 3,0 13 7 22 12 E 1023,6 0 0,0
30.05.2020 04:00:00 9,8 3,5 11 6 18 10 E 1023,7 0 0,0
30.05.2020 03:00:00 8,2 4,3 10 6 14 8 ENE 1023,8 0 0,0
30.05.2020 02:00:00 7,5 4,8 7 4 12 6 ENE 1024,1 0 0,0
30.05.2020 01:00:00 7,6 4,8 10 5 11 6 NE 1023,9 0 0,0
30.05.2020 00:00:00 9,5 4,7 6 4 8 5 ENE 1023,7 0 0,0
29.05.2020 23:00:00 13,7 3,8 6 4 10 6 E 1023,2 0 0,0
29.05.2020 22:00:00 15,1 3,9 7 4 11 6 E 1022,6 0 0,0
29.05.2020 21:00:00 17,7 3,9 7 4 18 10 SE 1022,2 54 0,0
29.05.2020 20:00:00 19,5 4,2 11 6 26 14 SE 1022,0 60 0,0
29.05.2020 19:00:00 20,4 4,9 13 7 30 16 SE 1022,3 60 0,0
29.05.2020 18:00:00 20,4 5,3 13 7 34 19 ESE 1022,7 60 0,0
29.05.2020 17:00:00 20,2 5,5 17 9 31 17 E 1023,0 60 0,0
29.05.2020 16:00:00 19,7 5,3 17 9 34 18 E 1023,8 58 0,0
29.05.2020 15:00:00 19,7 5,8 14 8 35 19 ESE 1024,3 59 0,0
29.05.2020 14:00:00 19,0 5,1 18 10 41 22 SE 1025,2 60 0,0
29.05.2020 13:00:00 18,5 4,5 17 9 34 19 SE 1025,8 60 0,0
29.05.2020 12:00:00 17,7 4,8 18 10 34 18 ESE 1026,5 60 0,0
29.05.2020 11:00:00 16,8 5,6 16 9 32 17 SE 1027,1 60 0,0
29.05.2020 10:00:00 15,4 5,5 16 8 26 14 SSE 1027,5 60 0,0
29.05.2020 09:00:00 14,2 5,0 11 6 19 10 SE 1027,7 60 0,0
29.05.2020 08:00:00 11,9 4,4 11 6 19 11 ESE 1028,0 60 0,0
29.05.2020 07:00:00 9,9 3,4 10 5 19 10 E 1028,5 49 0,0
29.05.2020 06:00:00 9,2 2,6 12 7 21 12 E 1028,3 0 0,0
29.05.2020 05:00:00 9,9 2,5 13 7 20 11 E 1028,3 0 0,0
29.05.2020 04:00:00 10,2 2,4 10 5 17 9 E 1028,4 0 0,0
29.05.2020 03:00:00 11,0 2,2 10 6 19 10 E 1028,7 0 0,0
29.05.2020 02:00:00 11,9 2,2 7 4 18 10 E 1028,6 0 0,0
29.05.2020 01:00:00 12,0 2,4 9 5 20 11 ENE 1028,9 0 0,0
29.05.2020 00:00:00 12,5 2,3 14 7 23 13 ENE 1028,6 0 0,0
28.05.2020 23:00:00 13,3 2,4 11 6 19 10 ENE 1028,5 0 0,0
28.05.2020 22:00:00 14,6 2,1 10 5 20 11 ENE 1028,0 0 0,0
28.05.2020 21:00:00 17,4 1,5 14 8 29 16 E 1027,5 54 0,0
28.05.2020 20:00:00 19,3 2,1 14 8 29 16 E 1027,3 60 0,0
28.05.2020 19:00:00 20,1 2,0 16 9 31 17 SE 1027,5 60 0,0
28.05.2020 18:00:00 20,6 3,1 16 9 31 17 ESE 1027,6 60 0,0
28.05.2020 17:00:00 20,7 3,2 18 10 32 18 E 1027,8 60 0,0
28.05.2020 16:00:00 20,6 4,2 14 7 31 17 ESE 1028,4 60 0,0
28.05.2020 15:00:00 20,3 6,6 13 7 34 18 SE 1028,6 60 0,0
28.05.2020 14:00:00 19,6 5,9 14 8 35 19 ESE 1029,3 60 0,0
28.05.2020 13:00:00 18,8 5,4 25 13 35 19 ESE 1029,8 60 0,0
28.05.2020 12:00:00 17,9 6,6 21 11 34 18 ESE 1030,2 60 0,0
28.05.2020 11:00:00 17,3 8,4 15 8 32 17 ESE 1030,7 60 0,0
28.05.2020 10:00:00 16,3 9,3 18 10 36 20 ESE 1031,0 60 0,0
28.05.2020 09:00:00 14,9 9,5 14 7 32 17 ESE 1030,9 60 0,0
28.05.2020 08:00:00 13,1 9,2 14 8 26 14 E 1030,9 60 0,0
28.05.2020 07:00:00 11,2 8,4 8 5 23 13 ENE 1031,7 18 0,0
28.05.2020 06:00:00 10,7 7,7 13 7 21 11 ENE 1031,6 0 0,0
28.05.2020 05:00:00 11,2 7,4 12 6 24 13 ENE 1031,4 0 0,0
28.05.2020 04:00:00 12,2 7,5 16 8 23 12 NE 1031,2 0 0,0
28.05.2020 03:00:00 12,4 7,8 13 7 20 11 NE 1031,2 0 0,0
28.05.2020 02:00:00 13,0 8,5 11 6 20 11 NE 1031,6 0 0,0
28.05.2020 01:00:00 13,7 9,1 12 6 20 11 NE 1031,9 0 0,0
28.05.2020 00:00:00 14,3 9,8 11 6 17 9 NE 1031,8 0 0,0
27.05.2020 23:00:00 15,0 9,7 10 6 15 8 NE 1031,7 0 0,0
27.05.2020 22:00:00 16,4 9,7 10 6 18 10 NE 1030,9 0 0,0
27.05.2020 21:00:00 19,0 9,2 10 6 26 14 NE 1030,3 45 0,0
27.05.2020 20:00:00 21,1 9,3 14 8 24 13 NE 1029,9 54 0,0
27.05.2020 19:00:00 22,0 9,3 16 9 28 15 E 1029,9 29 0,0
27.05.2020 18:00:00 21,5 9,3 8 5 17 9 ENE 1030,1 7 0,0
27.05.2020 17:00:00 22,5 10,0 6 3 15 8 SW 1030,3 51 0,0
27.05.2020 16:00:00 22,0 9,0 5 3 22 12 ESE 1031,0 55 0,0
27.05.2020 15:00:00 22,0 9,7 6 3 16 8 NW 1031,6 60 0,0
27.05.2020 14:00:00 20,7 8,7 11 6 24 13 E 1032,2 60 0,0
27.05.2020 13:00:00 19,7 8,4 8 4 22 12 ENE 1032,7 60 0,0
27.05.2020 12:00:00 18,9 7,4 9 5 19 10 E 1033,2 60 0,0
27.05.2020 11:00:00 18,2 8,3 8 4 16 9 SE 1033,6 60 0,0
27.05.2020 10:00:00 16,8 8,0 7 4 12 7 S 1034,0 60 0,0
27.05.2020 09:00:00 15,0 9,0 4 2 7 4 ESE 1034,3 60 0,0
27.05.2020 08:00:00 10,5 9,2 4 2 12 6 NE 1035,0 60 0,0
27.05.2020 07:00:00 6,9 6,1 10 5 13 7 NNE 1035,3 47 0,0
27.05.2020 06:00:00 5,1 4,3 10 6 12 7 NNE 1035,5 0 0,0
27.05.2020 05:00:00 5,6 4,7 6 3 11 6 NNE 1035,2 0 0,0
27.05.2020 04:00:00 6,1 5,0 9 5 13 7 NNE 1035,2 0 0,0
27.05.2020 03:00:00 6,6 5,3 11 6 12 7 NNE 1035,2 0 0,0
27.05.2020 02:00:00 7,5 5,6 7 4 9 5 NE 1035,4 0 0,0
27.05.2020 01:00:00 8,5 6,0 6 3 11 6 N 1035,4 0 0,0
27.05.2020 00:00:00 9,9 6,7 9 5 19 10 NE 1034,9 0 0,0
26.05.2020 23:00:00 11,5 6,8 11 6 16 8 ENE 1034,7 0 0,0
26.05.2020 22:00:00 13,0 6,7 8 4 15 8 NNE 1034,0 0 0,0
26.05.2020 21:00:00 18,2 4,5 12 6 23 13 NE 1033,0 52 0,0
26.05.2020 20:00:00 20,3 4,3 14 8 29 16 ENE 1032,4 60 0,0
26.05.2020 19:00:00 21,1 4,9 14 8 30 16 E 1032,2 60 0,0
26.05.2020 18:00:00 21,4 4,3 18 10 30 16 E 1032,2 60 0,0
26.05.2020 17:00:00 21,7 6,5 14 8 32 17 ENE 1032,3 60 0,0
26.05.2020 16:00:00 21,2 6,7 19 10 31 17 ENE 1032,6 59 0,0
26.05.2020 15:00:00 21,0 7,3 13 7 27 15 E 1032,9 60 0,0
26.05.2020 14:00:00 20,2 8,6 11 6 31 17 ESE 1033,4 60 0,0
26.05.2020 13:00:00 19,3 8,6 14 8 35 19 E 1033,8 60 0,0
26.05.2020 12:00:00 18,7 9,3 11 6 24 13 E 1034,1 60 0,0
26.05.2020 11:00:00 16,7 8,8 13 7 29 15 ENE 1034,7 60 0,0
26.05.2020 10:00:00 15,7 9,4 10 5 20 11 E 1035,1 60 0,0
26.05.2020 09:00:00 13,6 9,6 7 4 11 6 ENE 1035,1 60 0,0
26.05.2020 08:00:00 10,6 9,9 7 4 10 5 NE 1035,4 60 0,0

tt = Température de l'air
td = dewpoint
ff = Vitesse du vent
fx = gusts
dd = Direction du vent
ppp = reduced air pressure
sd = Ensoleillement
rr = Quantités de précipitations

stations d'obs. à proximité